| time (UTC) | temp F | wind direction | speed knots | gust knots | rain 1hr in | rain 24hr in | rain mn in | humidity % | barometer mb |
| 20260510091820 | 43 | 206 | 0.0 | 0.0 | 0.00 | 0.00 | 0.00 | 81 | 1029.1 |
| 20260510091318 | 43 | 206 | 0.0 | 0.0 | 0.00 | 0.00 | 0.00 | 80 | 1029.2 |
| 20260510090819 | 43 | 204 | 0.0 | 0.0 | 0.00 | 0.00 | 0.00 | 80 | 1029.2 |
| 20260510090319 | 44 | 204 | 0.0 | 0.0 | 0.00 | 0.00 | 0.00 | 79 | 1029.2 |
| 20260510085819 | 44 | 204 | 0.0 | 0.0 | 0.00 | 0.00 | 0.00 | 78 | 1029.2 |
| 20260510085319 | 44 | 204 | 0.0 | 0.0 | 0.00 | 0.00 | 0.00 | 78 | 1029.3 |
| 20260510084819 | 44 | 204 | 0.0 | 0.0 | 0.00 | 0.00 | 0.00 | 77 | 1029.2 |
| 20260510084319 | 45 | 204 | 0.0 | 0.0 | 0.00 | 0.00 | 0.00 | 76 | 1029.1 |
| 20260510084047 | 45 | 204 | 0.0 | 0.9 | 0.00 | 0.00 | 0.00 | 75 | 1029.1 |
| 20260510083541 | 45 | 204 | 0.0 | 0.9 | 0.00 | 0.00 | 0.00 | 76 | 1029.1 |
| 20260510082817 | 45 | 202 | 0.0 | 0.0 | 0.00 | 0.00 | 0.00 | 78 | 1029.1 |
| 20260510082318 | 45 | 202 | 0.0 | 0.0 | 0.00 | 0.00 | 0.00 | 77 | 1029.2 |
| 20260510081818 | 46 | 202 | 0.0 | 0.0 | 0.00 | 0.00 | 0.00 | 77 | 1029.2 |
| 20260510081539 | 46 | 202 | 0.0 | 0.0 | 0.00 | 0.00 | 0.00 | 76 | 1029.2 |
| 20260510080819 | 46 | 202 | 0.0 | 0.0 | 0.00 | 0.00 | 0.00 | 75 | 1029.2 |
| 20260510080318 | 46 | 202 | 0.0 | 0.0 | 0.00 | 0.00 | 0.00 | 75 | 1029.2 |
| 20260510075819 | 46 | 202 | 0.0 | 0.0 | 0.00 | 0.00 | 0.00 | 75 | 1029.2 |
| 20260510075318 | 47 | 161 | 0.0 | 0.0 | 0.00 | 0.00 | 0.00 | 72 | 1029.2 |
| 20260510074817 | 47 | 161 | 0.0 | 0.9 | 0.00 | 0.00 | 0.00 | 72 | 1029.2 |
| 20260510074316 | 47 | 161 | 0.0 | 0.9 | 0.00 | 0.00 | 0.00 | 72 | 1029.1 |
| 20260510074039 | 47 | 161 | 0.0 | 0.0 | 0.00 | 0.00 | 0.00 | 72 | 1029.1 |
| 20260510073317 | 48 | 161 | 0.0 | 0.0 | 0.00 | 0.00 | 0.00 | 70 | 1029.2 |
| 20260510072817 | 48 | 161 | 0.0 | 0.0 | 0.00 | 0.00 | 0.00 | 69 | 1029.2 |
| 20260510072317 | 48 | 161 | 0.0 | 0.9 | 0.00 | 0.00 | 0.00 | 68 | 1028.9 |
| 20260510071818 | 49 | 159 | 0.0 | 0.9 | 0.00 | 0.00 | 0.00 | 68 | 1028.9 |
| 20260510071317 | 49 | 255 | 0.0 | 0.0 | 0.00 | 0.00 | 0.00 | 68 | 1028.9 |
| 20260510070817 | 50 | 255 | 0.0 | 0.0 | 0.00 | 0.00 | 0.00 | 66 | 1028.9 |
| 20260510070316 | 50 | 255 | 0.0 | 0.0 | 0.00 | 0.00 | 0.00 | 64 | 1028.8 |
| 20260510065818 | 50 | 255 | 0.0 | 0.0 | 0.00 | 0.00 | 0.00 | 64 | 1028.9 |
| 20260510065316 | 50 | 255 | 0.0 | 0.0 | 0.00 | 0.00 | 0.00 | 65 | 1028.9 |
| 20260510064816 | 50 | 255 | 0.0 | 0.0 | 0.00 | 0.00 | 0.00 | 65 | 1029.1 |
| 20260510064316 | 50 | 262 | 0.0 | 0.0 | 0.00 | 0.00 | 0.00 | 66 | 1028.9 |
| 20260510063816 | 51 | 262 | 0.0 | 0.0 | 0.00 | 0.00 | 0.00 | 68 | 1029.1 |
| 20260510063316 | 51 | 262 | 0.0 | 0.0 | 0.00 | 0.00 | 0.00 | 66 | 1029.1 |
| 20260510062815 | 51 | 262 | 0.0 | 0.9 | 0.00 | 0.00 | 0.00 | 64 | 1029.1 |
| 20260510062544 | 51 | 262 | 0.0 | 0.9 | 0.00 | 0.00 | 0.00 | 64 | 1029.1 |
| 20260510062032 | 51 | 251 | 0.0 | 0.0 | 0.00 | 0.00 | 0.00 | 66 | 1029.1 |
| 20260510061317 | 52 | 251 | 0.0 | 0.0 | 0.00 | 0.00 | 0.00 | 64 | 1029.1 |
| 20260510060816 | 52 | 251 | 0.0 | 0.0 | 0.00 | 0.00 | 0.00 | 63 | 1029.1 |
| 20260510060536 | 53 | 296 | 0.0 | 0.0 | 0.00 | 0.00 | 0.00 | 61 | 1028.9 |
| 20260510055815 | 53 | 316 | 0.0 | 0.9 | 0.00 | 0.00 | 0.00 | 60 | 1028.8 |
| 20260510055315 | 54 | 49 | 0.0 | 0.9 | 0.00 | 0.00 | 0.00 | 58 | 1028.9 |
| 20260510054815 | 55 | 49 | 0.0 | 0.9 | 0.00 | 0.00 | 0.00 | 58 | 1028.8 |
| 20260510054315 | 57 | 264 | 0.0 | 0.9 | 0.00 | 0.00 | 0.00 | 54 | 1028.9 |
| 20260510053816 | 58 | 120 | 0.0 | 2.6 | 0.00 | 0.00 | 0.00 | 52 | 1028.8 |
| 20260510053315 | 59 | 120 | 0.9 | 5.2 | 0.00 | 0.00 | 0.00 | 47 | 1028.6 |
| 20260510052816 | 59 | 124 | 0.9 | 5.2 | 0.00 | 0.00 | 0.00 | 47 | 1028.7 |
| 20260510052314 | 58 | 183 | 2.6 | 5.2 | 0.00 | 0.00 | 0.00 | 48 | 1028.7 |
| 20260510051815 | 58 | 233 | 1.7 | 4.3 | 0.00 | 0.00 | 0.00 | 50 | 1028.9 |
| 20260510051314 | 60 | 134 | 0.0 | 5.2 | 0.00 | 0.00 | 0.00 | 48 | 1028.8 |
| 20260510050814 | 60 | 162 | 2.6 | 5.2 | 0.00 | 0.00 | 0.00 | 46 | 1028.9 |
| 20260510050314 | 58 | 190 | 3.5 | 4.3 | 0.00 | 0.00 | 0.00 | 48 | 1028.9 |
| 20260510045814 | 57 | 247 | 0.9 | 0.9 | 0.00 | 0.00 | 0.00 | 53 | 1028.8 |
| 20260510045314 | 57 | 244 | 0.0 | 0.0 | 0.00 | 0.00 | 0.00 | 53 | 1028.7 |
| 20260510044813 | 58 | 244 | 0.0 | 0.9 | 0.00 | 0.00 | 0.00 | 52 | 1028.8 |
| 20260510044315 | 58 | 243 | 0.0 | 0.9 | 0.00 | 0.00 | 0.00 | 51 | 1028.9 |
| 20260510044031 | 59 | 231 | 0.0 | 0.0 | 0.00 | 0.00 | 0.00 | 51 | 1028.8 |
| 20260510043313 | 59 | 157 | 0.0 | 0.0 | 0.00 | 0.00 | 0.00 | 52 | 1028.8 |
| 20260510042813 | 59 | 157 | 0.0 | 1.7 | 0.00 | 0.00 | 0.00 | 51 | 1028.7 |
| 20260510042312 | 60 | 155 | 0.0 | 1.7 | 0.00 | 0.00 | 0.00 | 51 | 1028.6 |
| 20260510041814 | 60 | 243 | 0.0 | 0.9 | 0.00 | 0.00 | 0.00 | 50 | 1028.6 |
| 20260510041313 | 60 | 252 | 0.0 | 1.7 | 0.00 | 0.00 | 0.00 | 49 | 1028.6 |
| 20260510040814 | 61 | 214 | 0.9 | 2.6 | 0.00 | 0.00 | 0.00 | 48 | 1028.5 |
| 20260510040312 | 61 | 223 | 0.9 | 3.5 | 0.00 | 0.00 | 0.00 | 48 | 1028.6 |
| 20260510035812 | 62 | 216 | 1.7 | 3.5 | 0.00 | 0.00 | 0.00 | 48 | 1028.5 |
| 20260510035313 | 62 | 216 | 0.0 | 1.7 | 0.00 | 0.00 | 0.00 | 48 | 1028.4 |
| 20260510034813 | 63 | 231 | 0.0 | 0.9 | 0.00 | 0.00 | 0.00 | 48 | 1028.4 |
| 20260510034313 | 63 | 231 | 0.0 | 0.9 | 0.00 | 0.00 | 0.00 | 44 | 1028.4 |
| 20260510033812 | 64 | 216 | 0.0 | 2.6 | 0.00 | 0.00 | 0.00 | 44 | 1028.5 |
| 20260510033538 | 66 | 116 | 0.0 | 2.6 | 0.00 | 0.00 | 0.00 | 39 | 1028.3 |
| 20260510032811 | 65 | 140 | 0.0 | 3.5 | 0.00 | 0.00 | 0.00 | 39 | 1028.1 |
| 20260510032313 | 65 | 169 | 1.7 | 3.5 | 0.00 | 0.00 | 0.00 | 41 | 1028.2 |
| 20260510032306 | 65 | 210 | 0.0 | 0.9 | 0.00 | 0.00 | 0.00 | 41 | 1028.1 |
| 20260510031312 | 65 | 210 | 0.0 | 0.0 | 0.00 | 0.00 | 0.00 | 43 | 1028.0 |
| 20260510030811 | 66 | 210 | 0.0 | 0.9 | 0.00 | 0.00 | 0.00 | 41 | 1028.1 |
| 20260510030311 | 66 | 210 | 0.0 | 0.9 | 0.00 | 0.00 | 0.00 | 40 | 1028.1 |
| 20260510025811 | 67 | 162 | 0.0 | 0.9 | 0.00 | 0.00 | 0.00 | 41 | 1028.2 |
| 20260510025310 | 68 | 162 | 0.0 | 0.9 | 0.00 | 0.00 | 0.00 | 38 | 1028.1 |
| 20260510024811 | 68 | 111 | 0.0 | 0.9 | 0.00 | 0.00 | 0.00 | 36 | 1028.0 |
| 20260510024311 | 69 | 111 | 0.0 | 1.7 | 0.00 | 0.00 | 0.00 | 35 | 1028.0 |
| 20260510023812 | 69 | 111 | 0.0 | 2.6 | 0.00 | 0.00 | 0.00 | 35 | 1028.1 |
| 20260510023310 | 70 | 110 | 0.9 | 2.6 | 0.00 | 0.00 | 0.00 | 34 | 1028.2 |
| 20260510023035 | 70 | 120 | 0.0 | 2.6 | 0.00 | 0.00 | 0.00 | 33 | 1028.1 |
| 20260510022538 | 71 | 113 | 0.0 | 2.6 | 0.00 | 0.00 | 0.00 | 33 | 1028.1 |
| 20260510022034 | 71 | 123 | 0.0 | 4.3 | 0.00 | 0.00 | 0.00 | 33 | 1028.1 |
| 20260510021310 | 72 | 102 | 0.0 | 7.8 | 0.00 | 0.00 | 0.00 | 31 | 1028.2 |
| 20260510020810 | 72 | 107 | 1.7 | 7.8 | 0.00 | 0.00 | 0.00 | 30 | 1028.1 |
| 20260510020535 | 72 | 97 | 3.5 | 7.8 | 0.00 | 0.00 | 0.00 | 29 | 1028.2 |
| 20260510015809 | 73 | 134 | 3.5 | 7.8 | 0.00 | 0.00 | 0.00 | 30 | 1028.3 |
| 20260510015311 | 73 | 113 | 2.6 | 7.8 | 0.00 | 0.00 | 0.00 | 30 | 1028.2 |
| 20260510014809 | 73 | 69 | 3.5 | 6.1 | 0.00 | 0.00 | 0.00 | 29 | 1028.2 |
| 20260510014309 | 73 | 142 | 3.5 | 7.8 | 0.00 | 0.00 | 0.00 | 29 | 1028.3 |
| 20260510013809 | 74 | 149 | 4.3 | 7.8 | 0.00 | 0.00 | 0.00 | 30 | 1028.2 |
| 20260510013532 | 74 | 142 | 3.5 | 6.1 | 0.00 | 0.00 | 0.00 | 29 | 1028.2 |
| 20260510012810 | 73 | 148 | 3.5 | 5.2 | 0.00 | 0.00 | 0.00 | 29 | 1028.3 |
| 20260510012534 | 73 | 142 | 1.7 | 7.8 | 0.00 | 0.00 | 0.00 | 31 | 1028.4 |
| 20260510012027 | 73 | 103 | 3.5 | 9.6 | 0.00 | 0.00 | 0.00 | 30 | 1028.3 |
| 20260510011309 | 73 | 127 | 5.2 | 9.6 | 0.00 | 0.00 | 0.00 | 29 | 1028.3 |
| 20260510011028 | 73 | 118 | 3.5 | 8.7 | 0.00 | 0.00 | 0.00 | 30 | 1028.4 |
| 20260510010310 | 73 | 124 | 5.2 | 7.8 | 0.00 | 0.00 | 0.00 | 29 | 1028.5 |
| 20260510005808 | 73 | 73 | 1.7 | 7.8 | 0.00 | 0.00 | 0.00 | 30 | 1028.5 |
| 20260510005309 | 73 | 118 | 4.3 | 7.8 | 0.00 | 0.00 | 0.00 | 29 | 1028.6 |
| 20260510005031 | 74 | 116 | 3.5 | 7.8 | 0.00 | 0.00 | 0.00 | 29 | 1028.5 |
| 20260510004536 | 74 | 133 | 2.6 | 10.4 | 0.00 | 0.00 | 0.00 | 30 | 1028.6 |
| 20260510003808 | 74 | 128 | 4.3 | 10.4 | 0.00 | 0.00 | 0.00 | 29 | 1028.6 |
| 20260510003310 | 74 | 113 | 4.3 | 7.8 | 0.00 | 0.00 | 0.00 | 29 | 1028.6 |
| 20260510002808 | 74 | 92 | 3.5 | 9.6 | 0.00 | 0.00 | 0.00 | 29 | 1028.5 |
| 20260510002309 | 74 | 100 | 3.5 | 9.6 | 0.00 | 0.00 | 0.00 | 29 | 1028.5 |
| 20260510001808 | 74 | 107 | 2.6 | 8.7 | 0.00 | 0.00 | 0.00 | 28 | 1028.6 |
| 20260510001307 | 74 | 109 | 4.3 | 7.8 | 0.00 | 0.00 | 0.00 | 27 | 1028.6 |
| 20260510001030 | 74 | 130 | 3.5 | 7.8 | 0.00 | 0.00 | 0.00 | 28 | 1028.5 |
| 20260510000308 | 74 | 97 | 4.3 | 8.7 | 0.00 | 0.00 | 0.00 | 27 | 1028.6 |
| 20260509235808 | 75 | 145 | 4.3 | 8.7 | 0.00 | 0.00 | 0.00 | 27 | 1028.6 |
| 20260509235307 | 74 | 107 | 3.5 | 8.7 | 0.00 | 0.00 | 0.00 | 28 | 1028.7 |
| 20260509234808 | 74 | 89 | 3.5 | 9.6 | 0.00 | 0.00 | 0.00 | 28 | 1028.7 |
| 20260509234307 | 74 | 116 | 7.0 | 9.6 | 0.00 | 0.00 | 0.00 | 27 | 1028.7 |
| 20260509233808 | 75 | 107 | 5.2 | 8.7 | 0.00 | 0.00 | 0.00 | 27 | 1028.8 |
| 20260509233747 | 75 | 106 | 4.3 | 8.7 | 0.00 | 0.00 | 0.00 | 27 | 1028.8 |
| 20260509232806 | 75 | 100 | 3.5 | 8.7 | 0.00 | 0.00 | 0.00 | 26 | 1028.8 |
| 20260509232307 | 75 | 90 | 3.5 | 9.6 | 0.00 | 0.00 | 0.00 | 27 | 1028.9 |
| 20260509231806 | 75 | 90 | 6.1 | 11.3 | 0.00 | 0.00 | 0.00 | 26 | 1028.9 |
| 20260509231307 | 75 | 110 | 2.6 | 11.3 | 0.00 | 0.00 | 0.00 | 27 | 1029.1 |
| 20260509231026 | 76 | 131 | 2.6 | 10.4 | 0.00 | 0.00 | 0.00 | 28 | 1029.1 |
| 20260509230308 | 75 | 80 | 5.2 | 12.2 | 0.00 | 0.00 | 0.00 | 27 | 1029.1 |
| 20260509225805 | 75 | 90 | 5.2 | 12.2 | 0.00 | 0.00 | 0.00 | 28 | 1029.2 |
| 20260509225308 | 75 | 107 | 5.2 | 11.3 | 0.00 | 0.00 | 0.00 | 27 | 1029.2 |
| 20260509224805 | 75 | 107 | 2.6 | 7.8 | 0.00 | 0.00 | 0.00 | 29 | 1029.3 |
| 20260509224529 | 75 | 104 | 2.6 | 6.1 | 0.00 | 0.00 | 0.00 | 29 | 1029.4 |
| 20260509223806 | 75 | 104 | 4.3 | 10.4 | 0.00 | 0.00 | 0.00 | 29 | 1029.4 |
| 20260509223531 | 75 | 93 | 4.3 | 10.4 | 0.00 | 0.00 | 0.00 | 28 | 1029.5 |
| 20260509222807 | 75 | 152 | 4.3 | 9.6 | 0.00 | 0.00 | 0.00 | 27 | 1029.5 |
| 20260509222307 | 75 | 116 | 5.2 | 9.6 | 0.00 | 0.00 | 0.00 | 23 | 1029.5 |
| 20260509221807 | 74 | 87 | 3.5 | 12.2 | 0.00 | 0.00 | 0.00 | 26 | 1029.6 |
| 20260509221744 | 75 | 90 | 6.1 | 12.2 | 0.00 | 0.00 | 0.00 | 22 | 1029.6 |
| 20260509220806 | 75 | 127 | 4.3 | 10.4 | 0.00 | 0.00 | 0.00 | 24 | 1029.7 |
| 20260509220304 | 75 | 86 | 4.3 | 10.4 | 0.00 | 0.00 | 0.00 | 23 | 1029.8 |
| 20260509215804 | 74 | 158 | 6.1 | 10.4 | 0.00 | 0.00 | 0.00 | 23 | 1029.8 |
| 20260509215528 | 74 | 137 | 6.1 | 12.2 | 0.00 | 0.00 | 0.00 | 21 | 1029.9 |
| 20260509214803 | 74 | 114 | 5.2 | 12.2 | 0.00 | 0.00 | 0.00 | 23 | 1029.9 |
| 20260509214305 | 74 | 135 | 6.1 | 11.3 | 0.00 | 0.00 | 0.00 | 24 | 1029.9 |
| 20260509213803 | 74 | 102 | 7.0 | 11.3 | 0.00 | 0.00 | 0.00 | 23 | 1029.9 |
| 20260509213306 | 74 | 111 | 5.2 | 11.3 | 0.00 | 0.00 | 0.00 | 25 | 1030.0 |
| 20260509212804 | 74 | 114 | 6.1 | 10.4 | 0.00 | 0.00 | 0.00 | 22 | 1030.0 |
| 20260509212306 | 75 | 127 | 5.2 | 9.6 | 0.00 | 0.00 | 0.00 | 24 | 1029.9 |
| 20260509211804 | 75 | 61 | 2.6 | 9.6 | 0.00 | 0.00 | 0.00 | 24 | 1030.0 |
| 20260509211303 | 75 | 152 | 6.1 | 11.3 | 0.00 | 0.00 | 0.00 | 22 | 1030.0 |
| 20260509210804 | 75 | 68 | 4.3 | 11.3 | 0.00 | 0.00 | 0.00 | 25 | 1030.1 |
| 20260509210302 | 75 | 85 | 5.2 | 9.6 | 0.00 | 0.00 | 0.00 | 22 | 1030.1 |
| 20260509205805 | 75 | 93 | 6.1 | 11.3 | 0.00 | 0.00 | 0.00 | 25 | 1030.1 |
| 20260509205306 | 74 | 140 | 2.6 | 11.3 | 0.00 | 0.00 | 0.00 | 25 | 1030.0 |
| 20260509204804 | 75 | 130 | 5.2 | 11.3 | 0.00 | 0.00 | 0.00 | 25 | 1030.1 |
| 20260509204302 | 75 | 54 | 3.5 | 8.7 | 0.00 | 0.00 | 0.00 | 25 | 1030.1 |
| 20260509204035 | 75 | 51 | 3.5 | 10.4 | 0.00 | 0.00 | 0.00 | 25 | 1030.1 |
| 20260509203302 | 75 | 69 | 4.3 | 10.4 | 0.00 | 0.00 | 0.00 | 27 | 1030.1 |
| 20260509202802 | 74 | 109 | 3.5 | 9.6 | 0.00 | 0.00 | 0.00 | 26 | 1030.0 |
| 20260509202306 | 74 | 117 | 5.2 | 9.6 | 0.00 | 0.00 | 0.00 | 26 | 1030.1 |
| 20260509201803 | 74 | 107 | 5.2 | 9.6 | 0.00 | 0.00 | 0.00 | 29 | 1030.1 |
| 20260509201530 | 73 | 65 | 4.3 | 12.2 | 0.00 | 0.00 | 0.00 | 29 | 1030.1 |
| 20260509200802 | 73 | 128 | 7.0 | 12.2 | 0.00 | 0.00 | 0.00 | 27 | 1030.2 |
| 20260509200304 | 73 | 86 | 3.5 | 11.3 | 0.00 | 0.00 | 0.00 | 28 | 1030.2 |
| 20260509200027 | 74 | 128 | 7.0 | 11.3 | 0.00 | 0.00 | 0.00 | 27 | 1030.4 |
| 20260509195301 | 74 | 135 | 3.5 | 10.4 | 0.00 | 0.00 | 0.00 | 28 | 1030.4 |
| 20260509195034 | 74 | 83 | 3.5 | 9.6 | 0.00 | 0.00 | 0.00 | 27 | 1030.6 |
| 20260509194300 | 73 | 96 | 3.5 | 10.4 | 0.00 | 0.00 | 0.00 | 28 | 1030.7 |
| 20260509193802 | 73 | 135 | 6.1 | 10.4 | 0.00 | 0.00 | 0.00 | 26 | 1030.7 |
| 20260509193530 | 73 | 92 | 3.5 | 9.6 | 0.00 | 0.00 | 0.00 | 27 | 1030.7 |
| 20260509193025 | 72 | 100 | 3.5 | 10.4 | 0.00 | 0.00 | 0.00 | 26 | 1030.7 |
| 20260509192301 | 72 | 90 | 6.1 | 10.4 | 0.00 | 0.00 | 0.00 | 25 | 1030.7 |
| 20260509191802 | 72 | 100 | 4.3 | 7.8 | 0.00 | 0.00 | 0.00 | 26 | 1030.8 |
| 20260509191301 | 72 | 59 | 3.5 | 8.7 | 0.00 | 0.00 | 0.00 | 28 | 1030.8 |
| 20260509190800 | 71 | 124 | 3.5 | 8.7 | 0.00 | 0.00 | 0.00 | 27 | 1030.8 |
| 20260509190301 | 71 | 147 | 3.5 | 7.8 | 0.00 | 0.00 | 0.00 | 25 | 1030.8 |
| 20260509185800 | 70 | 111 | 5.2 | 8.7 | 0.00 | 0.00 | 0.00 | 25 | 1030.9 |
| 20260509185524 | 70 | 117 | 3.5 | 9.6 | 0.00 | 0.00 | 0.00 | 29 | 1031.0 |
| 20260509184800 | 70 | 92 | 3.5 | 9.6 | 0.00 | 0.00 | 0.00 | 30 | 1031.0 |
| 20260509184301 | 70 | 106 | 4.3 | 8.7 | 0.00 | 0.00 | 0.00 | 29 | 1031.0 |
| 20260509183800 | 70 | 96 | 3.5 | 9.6 | 0.00 | 0.00 | 0.00 | 30 | 1031.0 |
| 20260509183301 | 70 | 99 | 5.2 | 9.6 | 0.00 | 0.00 | 0.00 | 31 | 1031.1 |
| 20260509182759 | 70 | 69 | 3.5 | 8.7 | 0.00 | 0.00 | 0.00 | 33 | 1031.1 |
| 20260509182300 | 69 | 79 | 3.5 | 7.8 | 0.00 | 0.00 | 0.00 | 34 | 1031.1 |
| 20260509181801 | 69 | 62 | 3.5 | 8.7 | 0.00 | 0.00 | 0.00 | 33 | 1031.3 |
| 20260509181259 | 68 | 69 | 2.6 | 8.7 | 0.00 | 0.00 | 0.00 | 32 | 1031.2 |
| 20260509180800 | 68 | 86 | 3.5 | 6.1 | 0.00 | 0.00 | 0.00 | 34 | 1031.2 |
| 20260509180259 | 68 | 83 | 1.7 | 6.1 | 0.00 | 0.00 | 0.00 | 31 | 1031.2 |
| 20260509175800 | 69 | 51 | 1.7 | 5.2 | 0.00 | 0.00 | 0.00 | 32 | 1031.3 |
| 20260509175258 | 69 | 83 | 1.7 | 5.2 | 0.00 | 0.00 | 0.00 | 32 | 1031.2 |
| 20260509174759 | 68 | 51 | 2.6 | 4.3 | 0.00 | 0.00 | 0.00 | 33 | 1031.2 |
| 20260509174259 | 68 | 99 | 1.7 | 5.2 | 0.00 | 0.00 | 0.00 | 32 | 1031.2 |
| 20260509174017 | 67 | 282 | 2.6 | 5.2 | 0.00 | 0.00 | 0.00 | 32 | 1031.3 |
| 20260509173259 | 67 | 158 | 2.6 | 4.3 | 0.00 | 0.00 | 0.00 | 33 | 1031.4 |
| 20260509172759 | 66 | 59 | 1.7 | 5.2 | 0.00 | 0.00 | 0.00 | 34 | 1031.4 |
| 20260509172259 | 66 | 102 | 1.7 | 5.2 | 0.00 | 0.00 | 0.00 | 34 | 1031.4 |
| 20260509171758 | 66 | 114 | 1.7 | 3.5 | 0.00 | 0.00 | 0.00 | 35 | 1031.4 |
| 20260509171300 | 65 | 79 | 1.7 | 4.3 | 0.00 | 0.00 | 0.00 | 34 | 1031.5 |
| 20260509170758 | 66 | 118 | 1.7 | 4.3 | 0.00 | 0.00 | 0.00 | 34 | 1031.5 |
| 20260509170258 | 65 | 135 | 0.9 | 4.3 | 0.00 | 0.00 | 0.00 | 36 | 1031.5 |
| 20260509165758 | 65 | 275 | 0.9 | 2.6 | 0.00 | 0.00 | 0.00 | 35 | 1031.6 |
| 20260509165258 | 64 | 87 | 0.0 | 3.5 | 0.00 | 0.00 | 0.00 | 35 | 1031.6 |
| 20260509164758 | 64 | 51 | 0.9 | 3.5 | 0.00 | 0.00 | 0.00 | 37 | 1031.7 |
| 20260509164257 | 64 | 16 | 0.9 | 2.6 | 0.00 | 0.00 | 0.00 | 38 | 1031.9 |
| 20260509163759 | 63 | 274 | 0.0 | 4.3 | 0.00 | 0.00 | 0.00 | 39 | 1031.8 |
| 20260509163257 | 62 | 13 | 1.7 | 4.3 | 0.00 | 0.00 | 0.00 | 40 | 1032.0 |
| 20260509162759 | 62 | 38 | 0.9 | 4.3 | 0.00 | 0.00 | 0.00 | 39 | 1032.2 |
| 20260509162257 | 62 | 66 | 2.6 | 4.3 | 0.00 | 0.00 | 0.00 | 39 | 1032.2 |
| 20260509161757 | 62 | 66 | 1.7 | 3.5 | 0.00 | 0.00 | 0.00 | 42 | 1032.3 |
| 20260509161255 | 61 | 68 | 1.7 | 3.5 | 0.00 | 0.00 | 0.00 | 41 | 1032.3 |
| 20260509160753 | 61 | 87 | 1.7 | 4.3 | 0.00 | 0.00 | 0.00 | 40 | 1032.4 |
| 20260509160258 | 61 | 203 | 0.9 | 4.3 | 0.00 | 0.00 | 0.00 | 40 | 1032.4 |
| 20260509160012 | 61 | 78 | 0.9 | 2.6 | 0.00 | 0.00 | 0.00 | 42 | 1032.5 |
| 20260509155258 | 62 | 89 | 0.9 | 2.6 | 0.00 | 0.00 | 0.00 | 40 | 1032.5 |
| 20260509154756 | 61 | 353 | 0.0 | 2.6 | 0.00 | 0.00 | 0.00 | 44 | 1032.5 |
| 20260509154258 | 61 | 45 | 0.9 | 2.6 | 0.00 | 0.00 | 0.00 | 43 | 1032.4 |
| 20260509153756 | 60 | 10 | 0.9 | 3.5 | 0.00 | 0.00 | 0.00 | 45 | 1032.5 |
| 20260509153740 | 59 | 307 | 0.0 | 3.5 | 0.00 | 0.00 | 0.00 | 44 | 1032.5 |
| 20260509152756 | 60 | 329 | 0.9 | 2.6 | 0.00 | 0.00 | 0.00 | 45 | 1032.5 |
| 20260509152743 | 59 | 38 | 0.0 | 3.5 | 0.00 | 0.00 | 0.00 | 45 | 1032.6 |
| 20260509151756 | 58 | 42 | 0.9 | 3.5 | 0.00 | 0.00 | 0.00 | 45 | 1032.6 |
| 20260509151256 | 58 | 16 | 0.9 | 2.6 | 0.00 | 0.00 | 0.00 | 46 | 1032.5 |
| 20260509150757 | 58 | 80 | 0.0 | 2.6 | 0.00 | 0.00 | 0.00 | 45 | 1032.5 |
| 20260509150255 | 57 | 85 | 0.9 | 2.6 | 0.00 | 0.00 | 0.00 | 47 | 1032.6 |
| 20260509145755 | 57 | 17 | 0.9 | 2.6 | 0.00 | 0.00 | 0.00 | 47 | 1032.6 |
| 20260509145515 | 57 | 25 | 0.9 | 1.7 | 0.00 | 0.00 | 0.00 | 49 | 1032.5 |
| 20260509144755 | 56 | 32 | 0.9 | 1.7 | 0.00 | 0.00 | 0.00 | 49 | 1032.5 |
| 20260509144514 | 56 | 27 | 0.9 | 1.7 | 0.00 | 0.00 | 0.00 | 50 | 1032.5 |
| 20260509144024 | 56 | 295 | 0.0 | 2.6 | 0.00 | 0.00 | 0.00 | 51 | 1032.5 |
| 20260509143255 | 56 | 28 | 0.0 | 2.6 | 0.00 | 0.00 | 0.00 | 50 | 1032.4 |
| 20260509142754 | 55 | 25 | 0.0 | 2.6 | 0.00 | 0.00 | 0.00 | 50 | 1032.4 |
| 20260509142255 | 55 | 351 | 0.9 | 5.2 | 0.00 | 0.00 | 0.00 | 51 | 1032.4 |
| 20260509141754 | 54 | 282 | 0.9 | 6.1 | 0.00 | 0.00 | 0.00 | 51 | 1032.5 |
| 20260509141254 | 53 | 258 | 2.6 | 6.1 | 0.00 | 0.00 | 0.00 | 51 | 1032.5 |
| 20260509140755 | 53 | 262 | 3.5 | 6.1 | 0.00 | 0.00 | 0.00 | 51 | 1032.4 |
| 20260509140514 | 53 | 258 | 2.6 | 5.2 | 0.00 | 0.00 | 0.00 | 53 | 1032.4 |
| 20260509135754 | 52 | 282 | 0.9 | 8.7 | 0.00 | 0.00 | 0.00 | 53 | 1032.4 |
| 20260509135253 | 52 | 279 | 3.5 | 8.7 | 0.00 | 0.00 | 0.00 | 53 | 1032.3 |
| 20260509134755 | 52 | 278 | 1.7 | 3.5 | 0.00 | 0.00 | 0.00 | 55 | 1032.3 |
| 20260509134253 | 51 | 271 | 0.0 | 6.1 | 0.00 | 0.00 | 0.00 | 55 | 1032.3 |
| 20260509133755 | 51 | 268 | 1.7 | 6.1 | 0.00 | 0.00 | 0.00 | 56 | 1032.2 |
| 20260509133253 | 50 | 286 | 1.7 | 4.3 | 0.00 | 0.00 | 0.00 | 57 | 1032.2 |
| 20260509132753 | 49 | 275 | 1.7 | 4.3 | 0.00 | 0.00 | 0.00 | 58 | 1032.2 |
| 20260509132252 | 49 | 278 | 0.0 | 2.6 | 0.00 | 0.00 | 0.00 | 59 | 1032.2 |
| 20260509131753 | 49 | 278 | 0.9 | 2.6 | 0.00 | 0.00 | 0.00 | 59 | 1032.2 |
| 20260509131250 | 49 | 268 | 0.9 | 2.6 | 0.00 | 0.00 | 0.00 | 60 | 1032.0 |
| 20260509130752 | 48 | 269 | 0.0 | 0.9 | 0.00 | 0.00 | 0.00 | 61 | 1032.0 |
| 20260509130253 | 48 | 234 | 0.0 | 3.5 | 0.00 | 0.00 | 0.00 | 61 | 1032.0 |
| 20260509125752 | 48 | 344 | 0.0 | 3.5 | 0.00 | 0.00 | 0.00 | 60 | 1032.0 |
| 20260509125253 | 48 | 272 | 0.0 | 5.2 | 0.00 | 0.00 | 0.00 | 60 | 1032.2 |
| 20260509125013 | 48 | 271 | 0.9 | 5.2 | 0.00 | 0.00 | 0.00 | 61 | 1032.0 |
| 20260509124252 | 47 | 281 | 0.9 | 2.6 | 0.00 | 0.00 | 0.00 | 63 | 1032.2 |
| 20260509123749 | 46 | 276 | 1.7 | 2.6 | 0.00 | 0.00 | 0.00 | 64 | 1032.2 |
| 20260509123508 | 46 | 266 | 0.0 | 2.6 | 0.00 | 0.00 | 0.00 | 62 | 1032.2 |
| 20260509123008 | 47 | 259 | 0.9 | 1.7 | 0.00 | 0.00 | 0.00 | 61 | 1032.3 |
| 20260509122252 | 47 | 255 | 0.0 | 0.9 | 0.00 | 0.00 | 0.00 | 60 | 1032.2 |
| 20260509121753 | 48 | 103 | 0.0 | 0.9 | 0.00 | 0.00 | 0.00 | 59 | 1032.3 |
| 20260509121252 | 48 | 103 | 0.0 | 0.9 | 0.00 | 0.00 | 0.00 | 59 | 1032.3 |
| 20260509120751 | 48 | 130 | 0.0 | 0.9 | 0.00 | 0.00 | 0.00 | 58 | 1032.3 |
| 20260509120252 | 49 | 104 | 0.0 | 0.9 | 0.00 | 0.00 | 0.00 | 57 | 1032.3 |
| 20260509115751 | 49 | 94 | 0.0 | 4.3 | 0.00 | 0.00 | 0.00 | 55 | 1032.3 |
| 20260509115252 | 49 | 144 | 0.9 | 4.3 | 0.00 | 0.00 | 0.00 | 55 | 1032.3 |
| 20260509114750 | 51 | 63 | 0.9 | 2.6 | 0.00 | 0.00 | 0.00 | 53 | 1032.4 |
| 20260509114249 | 52 | 244 | 0.0 | 2.6 | 0.00 | 0.00 | 0.00 | 51 | 1032.3 |
| 20260509113750 | 52 | 307 | 0.0 | 3.5 | 0.00 | 0.00 | 0.00 | 51 | 1032.3 |
| 20260509113252 | 53 | 282 | 0.0 | 5.2 | 0.00 | 0.00 | 0.00 | 51 | 1032.3 |
| 20260509112251 | 53 | 299 | 2.6 | 5.2 | 0.00 | 0.00 | 0.00 | 50 | 1032.3 |
| 20260509111750 | 53 | 326 | 0.9 | 6.1 | 0.00 | 0.00 | 0.00 | 50 | 1032.2 |
| 20260509111250 | 53 | 281 | 1.7 | 6.1 | 0.00 | 0.00 | 0.00 | 50 | 1032.2 |
| 20260509110747 | 53 | 266 | 2.6 | 10.4 | 0.00 | 0.00 | 0.00 | 49 | 1032.2 |
| 20260509110246 | 54 | 288 | 4.3 | 10.4 | 0.00 | 0.00 | 0.00 | 48 | 1032.3 |
| 20260509105748 | 54 | 265 | 4.3 | 10.4 | 0.00 | 0.00 | 0.00 | 49 | 1032.3 |
| 20260509105249 | 53 | 234 | 5.2 | 8.7 | 0.00 | 0.00 | 0.00 | 49 | 1032.3 |
| 20260509104751 | 53 | 298 | 4.3 | 7.8 | 0.00 | 0.00 | 0.00 | 50 | 1032.3 |
| 20260509104521 | 53 | 274 | 3.5 | 7.8 | 0.00 | 0.00 | 0.00 | 50 | 1032.4 |
| 20260509103749 | 53 | 288 | 3.5 | 7.8 | 0.00 | 0.00 | 0.00 | 50 | 1032.4 |
| 20260509103249 | 53 | 289 | 2.6 | 4.3 | 0.00 | 0.00 | 0.00 | 51 | 1032.3 |
| 20260509102745 | 53 | 269 | 1.7 | 5.2 | 0.00 | 0.00 | 0.00 | 50 | 1032.3 |
| 20260509102246 | 53 | 262 | 2.6 | 5.2 | 0.00 | 0.00 | 0.00 | 50 | 1032.2 |
| 20260509101745 | 53 | 283 | 2.6 | 4.3 | 0.00 | 0.00 | 0.00 | 50 | 1032.2 |
| 20260509101247 | 53 | 274 | 0.9 | 3.5 | 0.00 | 0.00 | 0.00 | 50 | 1032.2 |
| 20260509100749 | 54 | 295 | 0.9 | 4.3 | 0.00 | 0.00 | 0.00 | 48 | 1031.9 |
| 20260509100249 | 54 | 288 | 2.6 | 4.3 | 0.00 | 0.00 | 0.00 | 48 | 1032.0 |
| 20260509095748 | 54 | 266 | 0.9 | 4.3 | 0.00 | 0.00 | 0.00 | 48 | 1031.9 |
| 20260509095248 | 54 | 278 | 0.9 | 4.3 | 0.00 | 0.00 | 0.00 | 47 | 1032.0 |
| 20260509094745 | 55 | 293 | 0.0 | 7.8 | 0.00 | 0.00 | 0.00 | 47 | 1031.9 |
| 20260509094244 | 55 | 266 | 3.5 | 10.4 | 0.00 | 0.00 | 0.00 | 46 | 1031.8 |
| 20260509093746 | 55 | 269 | 2.6 | 10.4 | 0.00 | 0.00 | 0.00 | 46 | 1031.7 |
| 20260509093513 | 55 | 268 | 2.6 | 7.8 | 0.00 | 0.00 | 0.00 | 46 | 1031.8 |
| 20260509092746 | 55 | 295 | 5.2 | 11.3 | 0.00 | 0.00 | 0.00 | 45 | 1031.7 |
| 20260509092248 | 55 | 283 | 5.2 | 11.3 | 0.00 | 0.00 | 0.00 | 46 | 1031.6 |
| 20260509092012 | 55 | 278 | 4.3 | 11.3 | 0.00 | 0.00 | 0.00 | 46 | 1031.5 |